sensor_id;sensor_type;location;lat;lon;timestamp;temperature;humidity
17766;DHT22;9007;53.550;9.928;2022-07-22T00:01:29;19.10;99.90
17766;DHT22;9007;53.550;9.928;2022-07-22T00:03:55;19.10;99.90
17766;DHT22;9007;53.550;9.928;2022-07-22T00:06:23;19.10;99.90
17766;DHT22;9007;53.550;9.928;2022-07-22T00:08:50;19.10;99.90
17766;DHT22;9007;53.550;9.928;2022-07-22T00:11:17;19.10;99.90
17766;DHT22;9007;53.550;9.928;2022-07-22T00:13:44;19.00;99.90
17766;DHT22;9007;53.550;9.928;2022-07-22T00:16:12;18.90;99.90
17766;DHT22;9007;53.550;9.928;2022-07-22T00:18:39;18.90;99.90
17766;DHT22;9007;53.550;9.928;2022-07-22T00:21:06;18.20;99.90
17766;DHT22;9007;53.550;9.928;2022-07-22T00:23:32;18.70;99.90
17766;DHT22;9007;53.550;9.928;2022-07-22T00:25:59;18.60;99.90
17766;DHT22;9007;53.550;9.928;2022-07-22T00:28:26;18.50;99.90
17766;DHT22;9007;53.550;9.928;2022-07-22T00:30:52;18.50;99.90
17766;DHT22;9007;53.550;9.928;2022-07-22T00:33:20;18.50;99.90
17766;DHT22;9007;53.550;9.928;2022-07-22T00:35:47;18.40;99.90
17766;DHT22;9007;53.550;9.928;2022-07-22T00:38:14;18.80;99.90
17766;DHT22;9007;53.550;9.928;2022-07-22T00:40:40;18.40;99.90
17766;DHT22;9007;53.550;9.928;2022-07-22T00:43:07;18.40;99.90
17766;DHT22;9007;53.550;9.928;2022-07-22T00:45:33;18.30;99.90
17766;DHT22;9007;53.550;9.928;2022-07-22T00:48:00;18.20;99.90
17766;DHT22;9007;53.550;9.928;2022-07-22T00:50:28;18.10;99.90
17766;DHT22;9007;53.550;9.928;2022-07-22T00:52:55;18.10;99.90
17766;DHT22;9007;53.550;9.928;2022-07-22T00:55:22;18.10;99.90
17766;DHT22;9007;53.550;9.928;2022-07-22T00:57:48;18.00;99.90
17766;DHT22;9007;53.550;9.928;2022-07-22T01:00:16;18.10;99.90
17766;DHT22;9007;53.550;9.928;2022-07-22T01:02:43;18.10;99.90
17766;DHT22;9007;53.550;9.928;2022-07-22T01:05:10;18.00;99.90
17766;DHT22;9007;53.550;9.928;2022-07-22T01:07:38;18.00;99.90
17766;DHT22;9007;53.550;9.928;2022-07-22T01:10:05;18.00;99.90
17766;DHT22;9007;53.550;9.928;2022-07-22T01:12:32;17.90;99.90
17766;DHT22;9007;53.550;9.928;2022-07-22T01:14:59;17.80;99.90
17766;DHT22;9007;53.550;9.928;2022-07-22T01:17:25;17.80;99.90
17766;DHT22;9007;53.550;9.928;2022-07-22T01:19:52;17.70;99.90
17766;DHT22;9007;53.550;9.928;2022-07-22T01:22:20;17.60;99.90
17766;DHT22;9007;53.550;9.928;2022-07-22T01:24:47;17.60;99.90
17766;DHT22;9007;53.550;9.928;2022-07-22T01:27:14;17.50;99.90
17766;DHT22;9007;53.550;9.928;2022-07-22T01:29:40;17.40;99.90
17766;DHT22;9007;53.550;9.928;2022-07-22T01:32:07;17.40;99.90
17766;DHT22;9007;53.550;9.928;2022-07-22T01:34:34;17.20;99.90
17766;DHT22;9007;53.550;9.928;2022-07-22T01:37:00;17.10;99.90
17766;DHT22;9007;53.550;9.928;2022-07-22T01:39:28;17.20;99.90
17766;DHT22;9007;53.550;9.928;2022-07-22T01:41:55;17.10;99.90
17766;DHT22;9007;53.550;9.928;2022-07-22T01:44:21;17.10;99.90
17766;DHT22;9007;53.550;9.928;2022-07-22T01:46:48;17.10;99.90
17766;DHT22;9007;53.550;9.928;2022-07-22T01:49:15;16.60;99.90
17766;DHT22;9007;53.550;9.928;2022-07-22T01:51:42;17.90;99.90
17766;DHT22;9007;53.550;9.928;2022-07-22T01:54:08;16.80;99.90
17766;DHT22;9007;53.550;9.928;2022-07-22T01:56:36;16.80;99.90
17766;DHT22;9007;53.550;9.928;2022-07-22T01:59:03;16.90;99.90
17766;DHT22;9007;53.550;9.928;2022-07-22T02:01:29;16.80;99.90
17766;DHT22;9007;53.550;9.928;2022-07-22T02:03:56;16.80;99.90
17766;DHT22;9007;53.550;9.928;2022-07-22T02:06:23;16.80;99.90
17766;DHT22;9007;53.550;9.928;2022-07-22T02:08:49;16.80;99.90
17766;DHT22;9007;53.550;9.928;2022-07-22T02:11:16;16.80;99.90
17766;DHT22;9007;53.550;9.928;2022-07-22T02:13:44;16.90;99.90
17766;DHT22;9007;53.550;9.928;2022-07-22T02:16:11;16.80;99.90
17766;DHT22;9007;53.550;9.928;2022-07-22T02:18:37;16.80;99.90
17766;DHT22;9007;53.550;9.928;2022-07-22T02:21:04;16.80;99.90
17766;DHT22;9007;53.550;9.928;2022-07-22T02:23:31;16.80;99.90
17766;DHT22;9007;53.550;9.928;2022-07-22T02:25:58;16.80;99.90
17766;DHT22;9007;53.550;9.928;2022-07-22T02:28:24;16.80;99.90
17766;DHT22;9007;53.550;9.928;2022-07-22T02:30:52;16.70;99.90
17766;DHT22;9007;53.550;9.928;2022-07-22T02:33:19;16.70;99.90
17766;DHT22;9007;53.550;9.928;2022-07-22T02:35:46;16.70;99.90
17766;DHT22;9007;53.550;9.928;2022-07-22T02:38:12;16.70;99.90
17766;DHT22;9007;53.550;9.928;2022-07-22T02:40:39;16.70;99.90
17766;DHT22;9007;53.550;9.928;2022-07-22T02:43:06;16.70;99.90
17766;DHT22;9007;53.550;9.928;2022-07-22T02:45:32;16.70;99.90
17766;DHT22;9007;53.550;9.928;2022-07-22T02:48:00;16.70;99.90
17766;DHT22;9007;53.550;9.928;2022-07-22T02:50:27;16.70;99.90
17766;DHT22;9007;53.550;9.928;2022-07-22T02:52:54;16.70;99.90
17766;DHT22;9007;53.550;9.928;2022-07-22T02:55:20;16.70;99.90
17766;DHT22;9007;53.550;9.928;2022-07-22T02:57:47;16.80;99.90
17766;DHT22;9007;53.550;9.928;2022-07-22T03:00:14;16.80;99.90
17766;DHT22;9007;53.550;9.928;2022-07-22T03:02:41;16.80;99.90
17766;DHT22;9007;53.550;9.928;2022-07-22T03:05:09;16.70;99.90
17766;DHT22;9007;53.550;9.928;2022-07-22T03:07:36;16.60;99.90
17766;DHT22;9007;53.550;9.928;2022-07-22T03:10:03;16.50;99.90
17766;DHT22;9007;53.550;9.928;2022-07-22T03:12:30;16.50;99.90
17766;DHT22;9007;53.550;9.928;2022-07-22T03:14:56;16.50;99.90
17766;DHT22;9007;53.550;9.928;2022-07-22T03:17:23;16.60;99.90
17766;DHT22;9007;53.550;9.928;2022-07-22T03:19:50;16.60;99.90
17766;DHT22;9007;53.550;9.928;2022-07-22T03:22:18;16.60;99.90
17766;DHT22;9007;53.550;9.928;2022-07-22T03:24:44;16.50;99.90
17766;DHT22;9007;53.550;9.928;2022-07-22T03:27:11;16.60;99.90
17766;DHT22;9007;53.550;9.928;2022-07-22T03:29:38;16.60;99.90
17766;DHT22;9007;53.550;9.928;2022-07-22T03:32:04;16.70;99.90
17766;DHT22;9007;53.550;9.928;2022-07-22T03:34:31;16.60;99.90
17766;DHT22;9007;53.550;9.928;2022-07-22T03:36:57;16.60;99.90
17766;DHT22;9007;53.550;9.928;2022-07-22T03:39:25;16.60;99.90
17766;DHT22;9007;53.550;9.928;2022-07-22T03:41:52;16.50;99.90
17766;DHT22;9007;53.550;9.928;2022-07-22T03:44:19;16.50;99.90
17766;DHT22;9007;53.550;9.928;2022-07-22T03:46:45;16.50;99.90
17766;DHT22;9007;53.550;9.928;2022-07-22T03:49:12;16.50;99.90
17766;DHT22;9007;53.550;9.928;2022-07-22T03:51:38;16.50;99.90
17766;DHT22;9007;53.550;9.928;2022-07-22T03:54:05;16.50;99.90
17766;DHT22;9007;53.550;9.928;2022-07-22T03:56:33;16.50;99.90
17766;DHT22;9007;53.550;9.928;2022-07-22T03:59:00;16.50;99.90
17766;DHT22;9007;53.550;9.928;2022-07-22T04:01:26;16.60;99.90
17766;DHT22;9007;53.550;9.928;2022-07-22T04:03:53;16.60;99.90
17766;DHT22;9007;53.550;9.928;2022-07-22T04:06:20;16.60;99.90
17766;DHT22;9007;53.550;9.928;2022-07-22T04:08:46;16.60;99.90
17766;DHT22;9007;53.550;9.928;2022-07-22T04:11:13;16.60;99.90
17766;DHT22;9007;53.550;9.928;2022-07-22T04:13:41;18.00;99.90
17766;DHT22;9007;53.550;9.928;2022-07-22T04:16:08;16.60;99.90
17766;DHT22;9007;53.550;9.928;2022-07-22T04:18:35;16.60;99.90
17766;DHT22;9007;53.550;9.928;2022-07-22T04:21:01;16.60;99.90
17766;DHT22;9007;53.550;9.928;2022-07-22T04:23:28;16.60;99.90
17766;DHT22;9007;53.550;9.928;2022-07-22T04:25:55;16.70;99.90
17766;DHT22;9007;53.550;9.928;2022-07-22T04:28:21;16.40;99.90
17766;DHT22;9007;53.550;9.928;2022-07-22T04:30:49;16.30;99.90
17766;DHT22;9007;53.550;9.928;2022-07-22T04:33:16;16.30;99.90
17766;DHT22;9007;53.550;9.928;2022-07-22T04:35:43;16.30;99.90
17766;DHT22;9007;53.550;9.928;2022-07-22T04:38:09;16.20;99.90
17766;DHT22;9007;53.550;9.928;2022-07-22T04:40:36;16.50;99.90
17766;DHT22;9007;53.550;9.928;2022-07-22T04:43:03;16.10;99.90
17766;DHT22;9007;53.550;9.928;2022-07-22T04:45:31;16.30;99.90
17766;DHT22;9007;53.550;9.928;2022-07-22T04:47:59;16.10;99.90
17766;DHT22;9007;53.550;9.928;2022-07-22T04:50:25;16.20;99.90
17766;DHT22;9007;53.550;9.928;2022-07-22T04:52:52;16.20;99.90
17766;DHT22;9007;53.550;9.928;2022-07-22T04:55:19;16.70;99.90
17766;DHT22;9007;53.550;9.928;2022-07-22T04:57:45;16.30;99.90
17766;DHT22;9007;53.550;9.928;2022-07-22T05:00:12;16.30;99.90
17766;DHT22;9007;53.550;9.928;2022-07-22T05:02:41;15.10;99.90
17766;DHT22;9007;53.550;9.928;2022-07-22T05:05:09;16.50;99.90
17766;DHT22;9007;53.550;9.928;2022-07-22T05:07:35;16.40;99.90
17766;DHT22;9007;53.550;9.928;2022-07-22T05:10:02;16.40;99.90
17766;DHT22;9007;53.550;9.928;2022-07-22T05:12:29;16.40;99.90
17766;DHT22;9007;53.550;9.928;2022-07-22T05:14:56;16.40;99.90
17766;DHT22;9007;53.550;9.928;2022-07-22T05:17:22;16.40;99.90
17766;DHT22;9007;53.550;9.928;2022-07-22T05:19:49;16.40;99.90
17766;DHT22;9007;53.550;9.928;2022-07-22T05:22:17;16.30;99.90
17766;DHT22;9007;53.550;9.928;2022-07-22T05:24:43;16.40;99.90
17766;DHT22;9007;53.550;9.928;2022-07-22T05:27:10;16.20;99.90
17766;DHT22;9007;53.550;9.928;2022-07-22T05:29:36;16.30;99.90
17766;DHT22;9007;53.550;9.928;2022-07-22T05:32:03;16.20;99.90
17766;DHT22;9007;53.550;9.928;2022-07-22T05:34:30;16.20;99.90
17766;DHT22;9007;53.550;9.928;2022-07-22T05:36:57;16.20;99.90
17766;DHT22;9007;53.550;9.928;2022-07-22T05:39:25;16.20;99.90
17766;DHT22;9007;53.550;9.928;2022-07-22T05:41:51;16.20;99.90
17766;DHT22;9007;53.550;9.928;2022-07-22T05:44:18;16.40;99.90
17766;DHT22;9007;53.550;9.928;2022-07-22T05:46:44;16.40;99.90
17766;DHT22;9007;53.550;9.928;2022-07-22T05:49:11;16.40;99.90
17766;DHT22;9007;53.550;9.928;2022-07-22T05:51:38;16.50;99.90
17766;DHT22;9007;53.550;9.928;2022-07-22T05:54:04;16.60;99.90
17766;DHT22;9007;53.550;9.928;2022-07-22T05:56:32;16.60;99.90
17766;DHT22;9007;53.550;9.928;2022-07-22T05:58:59;16.60;99.90
17766;DHT22;9007;53.550;9.928;2022-07-22T06:01:26;16.60;99.90
17766;DHT22;9007;53.550;9.928;2022-07-22T06:03:52;16.60;99.90
17766;DHT22;9007;53.550;9.928;2022-07-22T06:06:19;16.70;99.90
17766;DHT22;9007;53.550;9.928;2022-07-22T06:08:45;16.80;99.90
17766;DHT22;9007;53.550;9.928;2022-07-22T06:11:16;16.90;99.90
17766;DHT22;9007;53.550;9.928;2022-07-22T06:13:51;17.00;99.90
17766;DHT22;9007;53.550;9.928;2022-07-22T06:16:17;17.00;99.90
17766;DHT22;9007;53.550;9.928;2022-07-22T06:18:44;16.90;99.90
17766;DHT22;9007;53.550;9.928;2022-07-22T06:21:11;16.90;99.90
17766;DHT22;9007;53.550;9.928;2022-07-22T06:23:37;16.80;99.90
17766;DHT22;9007;53.550;9.928;2022-07-22T06:26:04;16.90;99.90
17766;DHT22;9007;53.550;9.928;2022-07-22T06:28:31;16.90;99.90
17766;DHT22;9007;53.550;9.928;2022-07-22T06:30:59;17.30;99.90
17766;DHT22;9007;53.550;9.928;2022-07-22T06:33:26;18.10;99.90
17766;DHT22;9007;53.550;9.928;2022-07-22T06:35:52;18.80;99.90
17766;DHT22;9007;53.550;9.928;2022-07-22T06:38:19;19.10;99.90
17766;DHT22;9007;53.550;9.928;2022-07-22T06:40:45;18.40;99.90
17766;DHT22;9007;53.550;9.928;2022-07-22T06:43:12;18.30;99.90
17766;DHT22;9007;53.550;9.928;2022-07-22T06:45:39;18.10;99.90
17766;DHT22;9007;53.550;9.928;2022-07-22T06:48:07;18.10;99.90
17766;DHT22;9007;53.550;9.928;2022-07-22T06:50:33;18.10;99.90
17766;DHT22;9007;53.550;9.928;2022-07-22T06:53:00;18.10;99.90
17766;DHT22;9007;53.550;9.928;2022-07-22T06:55:27;18.00;99.90
17766;DHT22;9007;53.550;9.928;2022-07-22T06:57:53;18.40;99.90
17766;DHT22;9007;53.550;9.928;2022-07-22T07:00:20;17.80;99.90
17766;DHT22;9007;53.550;9.928;2022-07-22T07:02:46;17.80;99.90
17766;DHT22;9007;53.550;9.928;2022-07-22T07:05:14;17.80;99.90
17766;DHT22;9007;53.550;9.928;2022-07-22T07:07:41;17.90;99.90
17766;DHT22;9007;53.550;9.928;2022-07-22T07:10:08;18.10;99.90
17766;DHT22;9007;53.550;9.928;2022-07-22T07:12:36;18.00;99.90
17766;DHT22;9007;53.550;9.928;2022-07-22T07:15:03;18.10;99.90
17766;DHT22;9007;53.550;9.928;2022-07-22T07:17:30;18.20;99.90
17766;DHT22;9007;53.550;9.928;2022-07-22T07:19:57;18.00;99.90
17766;DHT22;9007;53.550;9.928;2022-07-22T07:22:25;18.20;99.90
17766;DHT22;9007;53.550;9.928;2022-07-22T07:24:51;18.30;99.90
17766;DHT22;9007;53.550;9.928;2022-07-22T07:27:18;19.40;99.90
17766;DHT22;9007;53.550;9.928;2022-07-22T07:29:44;18.30;99.90
17766;DHT22;9007;53.550;9.928;2022-07-22T07:32:12;18.30;99.90
17766;DHT22;9007;53.550;9.928;2022-07-22T07:34:38;18.20;99.90
17766;DHT22;9007;53.550;9.928;2022-07-22T07:37:05;18.30;99.90
17766;DHT22;9007;53.550;9.928;2022-07-22T07:39:33;19.10;99.90
